createdAt,value
2023-05-01T00:03:37.969Z,15.20
2023-05-01T00:08:39.464Z,15.06
2023-05-01T00:13:41.068Z,14.98
2023-05-01T00:18:42.417Z,14.92
2023-05-01T00:23:43.803Z,14.80
2023-05-01T00:28:45.208Z,14.75
2023-05-01T00:33:46.589Z,14.65
2023-05-01T00:38:48.064Z,14.48
2023-05-01T00:43:49.394Z,14.39
2023-05-01T00:48:52.106Z,14.31
2023-05-01T00:53:54.044Z,14.33
2023-05-01T00:58:56.229Z,14.27
2023-05-01T01:03:57.697Z,14.24
2023-05-01T01:09:29.026Z,14.23
2023-05-01T01:14:56.643Z,14.29
2023-05-01T01:20:23.580Z,14.23
2023-05-01T01:25:41.596Z,14.20
2023-05-01T01:30:51.885Z,14.13
2023-05-01T01:36:07.108Z,14.08
2023-05-01T01:41:33.105Z,13.96
2023-05-01T01:46:39.387Z,13.83
2023-05-01T01:51:41.856Z,13.78
2023-05-01T01:56:45.239Z,13.60
2023-05-01T02:01:49.158Z,13.57
2023-05-01T02:06:52.015Z,13.54
2023-05-01T02:11:57.565Z,13.48
2023-05-01T02:16:59.516Z,13.43
2023-05-01T02:22:02.811Z,13.35
2023-05-01T02:27:09.434Z,13.28
2023-05-01T02:32:10.846Z,13.17
2023-05-01T02:37:12.516Z,13.08
2023-05-01T02:42:16.438Z,13.01
2023-05-01T02:47:21.367Z,12.89
2023-05-01T02:52:23.194Z,12.83
2023-05-01T02:57:25.056Z,12.82
2023-05-01T03:02:26.730Z,12.84
2023-05-01T03:07:34.843Z,12.82
2023-05-01T03:12:36.182Z,12.83
2023-05-01T03:17:37.522Z,12.84
2023-05-01T03:22:39.969Z,12.79
2023-05-01T03:27:41.573Z,12.74
2023-05-01T03:32:42.997Z,12.82
2023-05-01T03:37:44.388Z,12.85
2023-05-01T03:42:45.758Z,12.90
2023-05-01T03:47:47.131Z,12.86
2023-05-01T03:52:48.519Z,12.86
2023-05-01T03:57:49.907Z,12.90
2023-05-01T04:02:51.461Z,12.93
2023-05-01T04:07:52.880Z,12.81
2023-05-01T04:12:54.204Z,12.73
2023-05-01T04:17:56.699Z,12.69
2023-05-01T04:22:58.081Z,12.64
2023-05-01T04:27:59.481Z,12.67
2023-05-01T04:33:01.783Z,12.64
2023-05-01T04:38:03.185Z,12.55
2023-05-01T04:43:04.501Z,12.39
2023-05-01T04:48:06.473Z,12.34
2023-05-01T04:53:08.690Z,12.34
2023-05-01T04:58:10.019Z,12.32
2023-05-01T05:03:11.487Z,12.28
2023-05-01T05:08:12.936Z,12.40
2023-05-01T05:13:14.255Z,12.43
2023-05-01T05:18:15.626Z,12.48
2023-05-01T05:23:17.022Z,12.59
2023-05-01T05:28:18.412Z,12.59
2023-05-01T05:33:19.995Z,12.69
2023-05-01T05:38:21.722Z,12.78
2023-05-01T05:43:24.953Z,12.90
2023-05-01T05:48:27.796Z,12.93
2023-05-01T05:53:29.239Z,12.88
2023-05-01T05:58:30.770Z,13.02
2023-05-01T06:03:32.790Z,13.25
2023-05-01T06:08:36.340Z,13.42
2023-05-01T06:13:37.683Z,13.70
2023-05-01T06:18:39.137Z,13.96
2023-05-01T06:23:40.472Z,14.20
2023-05-01T06:28:41.836Z,14.43
2023-05-01T06:33:43.179Z,14.68
2023-05-01T06:38:48.639Z,15.01
2023-05-01T06:43:50.070Z,15.15
2023-05-01T06:48:51.400Z,15.34
2023-05-01T06:53:52.768Z,15.38
2023-05-01T06:58:54.129Z,15.59
2023-05-01T07:03:55.470Z,15.79
2023-05-01T07:08:56.793Z,15.83
2023-05-01T07:13:58.203Z,15.95
2023-05-01T07:18:59.685Z,15.96
2023-05-01T07:24:01.038Z,16.11
2023-05-01T07:29:03.022Z,16.36
2023-05-01T07:34:04.768Z,16.57
2023-05-01T07:39:06.723Z,16.85
2023-05-01T07:44:08.158Z,17.18
2023-05-01T07:49:09.539Z,17.42
2023-05-01T07:54:10.881Z,17.67
2023-05-01T07:59:12.229Z,17.84
2023-05-01T08:04:14.441Z,18.10
2023-05-01T08:09:16.581Z,18.26
2023-05-01T08:14:18.341Z,18.40
2023-05-01T08:19:19.679Z,18.22
2023-05-01T08:24:21.066Z,18.34
2023-05-01T08:29:22.520Z,18.65
2023-05-01T08:34:24.093Z,18.84
2023-05-01T08:39:25.544Z,18.91
2023-05-01T08:44:28.772Z,18.99
2023-05-01T08:49:33.601Z,19.05
2023-05-01T08:54:36.812Z,19.33
2023-05-01T08:59:39.280Z,19.31
2023-05-01T09:04:41.737Z,19.22
2023-05-01T09:09:43.644Z,19.36
2023-05-01T09:14:45.434Z,19.71
2023-05-01T09:19:47.774Z,19.83
2023-05-01T09:24:49.639Z,19.90
2023-05-01T09:29:50.985Z,20.15
2023-05-01T09:34:52.466Z,20.12
2023-05-01T09:40:08.748Z,20.11
2023-05-01T09:45:14.686Z,20.15
2023-05-01T09:50:33.173Z,20.20
2023-05-01T09:55:34.727Z,20.12
2023-05-01T10:00:48.437Z,19.95
2023-05-01T10:05:50.054Z,19.88
2023-05-01T10:11:04.447Z,19.71
2023-05-01T10:16:08.349Z,19.60
2023-05-01T10:21:10.690Z,19.48
2023-05-01T10:26:13.859Z,19.85
2023-05-01T10:31:16.612Z,20.24
2023-05-01T10:36:23.129Z,20.62
2023-05-01T10:41:58.257Z,20.51
2023-05-01T10:46:59.703Z,20.61
2023-05-01T10:52:03.563Z,20.89
2023-05-01T10:57:06.474Z,21.30
2023-05-01T11:02:22.134Z,21.78
2023-05-01T11:07:23.986Z,22.19
2023-05-01T11:12:51.680Z,22.83
2023-05-01T11:17:53.248Z,24.10
2023-05-01T11:22:57.030Z,25.36
2023-05-01T11:28:01.048Z,26.46
2023-05-01T11:33:02.551Z,27.61
2023-05-01T11:38:03.953Z,28.82
2023-05-01T11:43:06.915Z,29.87
2023-05-01T11:48:16.395Z,30.32
2023-05-01T11:53:18.554Z,30.97
2023-05-01T11:58:31.958Z,31.62
2023-05-01T12:03:42.445Z,31.34
2023-05-01T12:08:47.377Z,31.05
2023-05-01T12:13:50.226Z,30.21
2023-05-01T12:18:52.917Z,30.01
2023-05-01T12:23:59.947Z,29.70
2023-05-01T12:29:06.663Z,29.37
2023-05-01T12:34:08.185Z,29.17
2023-05-01T12:39:14.329Z,28.94
2023-05-01T12:44:19.598Z,29.17
2023-05-01T12:49:22.504Z,29.31
2023-05-01T12:54:43.265Z,29.03
2023-05-01T12:59:46.860Z,28.57
2023-05-01T13:04:49.680Z,28.57
2023-05-01T13:09:59.333Z,28.29
2023-05-01T13:15:01.148Z,27.84
2023-05-01T13:20:04.863Z,27.33
2023-05-01T13:25:17.190Z,26.58
2023-05-01T13:30:22.010Z,26.63
2023-05-01T13:35:24.902Z,26.33
2023-05-01T13:40:27.628Z,25.97
2023-05-01T13:45:29.011Z,25.46
2023-05-01T13:50:30.551Z,25.00
2023-05-01T13:55:32.557Z,24.66
2023-05-01T14:00:34.069Z,24.35
2023-05-01T14:05:36.602Z,23.91
2023-05-01T14:10:38.404Z,23.63
2023-05-01T14:15:43.764Z,23.38
2023-05-01T14:20:47.305Z,23.14
2023-05-01T14:25:49.328Z,23.17
2023-05-01T14:30:51.288Z,23.27
2023-05-01T14:35:53.659Z,23.50
2023-05-01T14:40:55.242Z,23.61
2023-05-01T14:45:56.823Z,23.60
2023-05-01T14:50:59.352Z,23.60
2023-05-01T14:56:00.922Z,23.43
2023-05-01T15:01:02.610Z,23.33
2023-05-01T15:06:04.292Z,23.25
2023-05-01T15:11:05.921Z,23.29
2023-05-01T15:16:08.203Z,23.16
2023-05-01T15:21:09.717Z,23.09
2023-05-01T15:26:11.288Z,23.20
2023-05-01T15:31:12.742Z,23.42
2023-05-01T15:36:14.258Z,23.52
2023-05-01T15:41:18.300Z,23.60
2023-05-01T15:46:22.877Z,23.51
2023-05-01T15:51:25.827Z,23.58
2023-05-01T15:56:27.468Z,23.88
2023-05-01T16:01:32.337Z,24.63
2023-05-01T16:06:35.043Z,25.12
2023-05-01T16:11:36.569Z,25.25
2023-05-01T16:16:41.113Z,25.43
2023-05-01T16:21:42.731Z,25.21
2023-05-01T16:26:44.282Z,24.85
2023-05-01T16:31:47.465Z,24.58
2023-05-01T16:36:49.058Z,24.53
2023-05-01T16:41:51.663Z,24.51
2023-05-01T16:47:01.069Z,24.49
2023-05-01T16:52:04.214Z,23.87
2023-05-01T16:57:05.980Z,23.95
2023-05-01T17:02:07.916Z,23.82
2023-05-01T17:07:09.545Z,23.44
2023-05-01T17:12:11.003Z,23.14
2023-05-01T17:17:12.501Z,23.10
2023-05-01T17:22:14.489Z,23.08
2023-05-01T17:27:16.266Z,22.76
2023-05-01T17:37:39.786Z,22.32
2023-05-01T17:42:41.861Z,22.13
2023-05-01T17:47:44.875Z,21.94
2023-05-01T17:52:46.305Z,21.75
2023-05-01T17:57:47.838Z,21.56
2023-05-01T18:02:49.334Z,21.54
2023-05-01T18:07:50.858Z,21.41
2023-05-01T18:12:52.566Z,21.13
2023-05-01T18:17:54.036Z,20.96
2023-05-01T18:22:55.515Z,20.80
2023-05-01T18:27:57.451Z,20.67
2023-05-01T18:32:58.995Z,20.54
2023-05-01T18:38:00.411Z,20.44
2023-05-01T18:43:03.068Z,20.28
2023-05-01T18:48:05.008Z,20.07
2023-05-01T18:53:06.476Z,19.96
2023-05-01T18:58:07.979Z,19.86
2023-05-01T19:03:09.523Z,19.71
2023-05-01T19:08:11.023Z,19.59
2023-05-01T19:13:12.638Z,19.35
2023-05-01T19:18:16.039Z,19.17
2023-05-01T19:23:17.542Z,19.05
2023-05-01T19:28:19.185Z,18.80
2023-05-01T19:33:20.722Z,18.71
2023-05-01T19:38:22.192Z,18.57
2023-05-01T19:43:23.614Z,18.48
2023-05-01T19:48:25.253Z,18.33
2023-05-01T19:53:28.377Z,18.35
2023-05-01T19:58:29.907Z,18.23
2023-05-01T20:03:31.633Z,18.11
2023-05-01T20:08:33.779Z,18.04
2023-05-01T20:13:36.764Z,17.99
2023-05-01T20:18:38.174Z,18.09
2023-05-01T20:23:40.188Z,18.02
2023-05-01T20:28:41.746Z,17.93
2023-05-01T20:33:43.184Z,17.68
2023-05-01T20:38:46.282Z,17.57
2023-05-01T20:43:47.830Z,17.66
2023-05-01T20:48:49.370Z,17.58
2023-05-01T20:53:51.230Z,17.61
2023-05-01T20:58:53.267Z,17.64
2023-05-01T21:03:55.438Z,17.55
2023-05-01T21:09:00.554Z,17.62
2023-05-01T21:14:02.383Z,17.57
2023-05-01T21:19:03.795Z,17.51
2023-05-01T21:24:07.795Z,17.58
2023-05-01T21:29:09.700Z,17.54
2023-05-01T21:34:11.168Z,17.48
2023-05-01T21:39:12.894Z,17.42
2023-05-01T21:44:14.658Z,17.43
2023-05-01T21:49:18.483Z,17.54
2023-05-01T21:54:21.512Z,17.43
2023-05-01T21:59:23.179Z,17.41
2023-05-01T22:04:24.511Z,17.35
2023-05-01T22:09:25.996Z,17.37
2023-05-01T22:14:36.688Z,17.37
2023-05-01T22:19:47.900Z,17.38
2023-05-01T22:24:49.235Z,17.36
2023-05-01T22:29:50.654Z,17.38
2023-05-01T22:34:51.985Z,17.36
2023-05-01T22:39:53.887Z,17.39
2023-05-01T22:44:55.236Z,17.36
2023-05-01T22:49:56.653Z,17.25
2023-05-01T22:54:58.278Z,17.37
2023-05-01T22:59:59.786Z,17.28
2023-05-01T23:05:01.684Z,17.14
2023-05-01T23:10:03.386Z,17.00
2023-05-01T23:15:08.746Z,17.04
2023-05-01T23:20:15.519Z,17.02
2023-05-01T23:25:22.911Z,16.85
2023-05-01T23:30:24.471Z,16.73
2023-05-01T23:35:25.941Z,16.83
2023-05-01T23:40:27.432Z,16.71
2023-05-01T23:45:28.784Z,16.65
2023-05-01T23:50:30.330Z,16.64
2023-05-01T23:55:31.645Z,16.60
